Time;durP1;ratioP1;P1;durP2;ratioP2;P2;SDS_P1;SDS_P2;PMS_P1;PMS_P2;Temp;Humidity;BMP_temperature;BMP_pressure;BME280_temperature;BME280_humidity;BME280_pressure;Samples;Min_cycle;Max_cycle;Signal;HPM_P1;HPM_P2
2023/06/18 00:02:08;;;;;;;9.05;8.15;;;;;;;19.46;100.00;101189.84;5035598;28;20037;-48
2023/06/18 00:04:34;;;;;;;12.20;8.77;;;;;;;19.63;100.00;101229.66;5035660;28;20236;-47
2023/06/18 00:06:59;;;;;;;9.40;8.63;;;;;;;19.38;100.00;101190.25;5035411;28;20095;-46
2023/06/18 00:09:25;;;;;;;9.05;8.02;;;;;;;19.38;100.00;101192.09;5035865;28;20029;-48
2023/06/18 00:11:50;;;;;;;9.27;8.32;;;;;;;19.65;100.00;101241.09;5035767;28;20033;-48
2023/06/18 00:14:19;;;;;;;9.90;8.90;;;;;;;19.73;100.00;101262.81;5017429;28;20048;-47
2023/06/18 00:16:44;;;;;;;10.27;9.27;;;;;;;19.71;100.00;101248.72;5017780;28;20053;-46
2023/06/18 00:19:09;;;;;;;10.55;8.68;;;;;;;19.67;100.00;101258.72;5035363;28;20461;-50
2023/06/18 00:21:35;;;;;;;9.70;8.68;;;;;;;19.63;100.00;101246.56;5017629;28;20464;-50
2023/06/18 00:24:00;;;;;;;12.45;8.95;;;;;;;19.52;100.00;101221.47;5035657;28;20021;-50
2023/06/18 00:26:26;;;;;;;9.07;8.38;;;;;;;19.51;100.00;101231.28;5017732;28;20068;-47
2023/06/18 00:28:52;;;;;;;10.15;9.15;;;;;;;19.36;100.00;101215.34;5035510;28;20740;-48
2023/06/18 00:31:17;;;;;;;10.38;9.38;;;;;;;19.48;100.00;101238.63;4997814;28;20095;-51
2023/06/18 00:33:46;;;;;;;11.20;9.95;;;;;;;19.44;100.00;101229.13;5015418;28;20095;-46
2023/06/18 00:36:12;;;;;;;10.90;9.65;;;;;;;19.16;100.00;101189.03;5015388;28;20044;-47
2023/06/18 00:38:43;;;;;;;11.57;10.02;;;;;;;19.42;100.00;101231.88;5015757;28;20042;-48
2023/06/18 00:41:09;;;;;;;11.20;9.80;;;;;;;19.16;100.00;101189.03;5015547;28;20034;-49
2023/06/18 00:43:34;;;;;;;13.77;9.32;;;;;;;19.32;100.00;101221.84;5015557;28;20048;-49
2023/06/18 00:46:00;;;;;;;11.07;9.93;;;;;;;19.32;100.00;101236.03;5015145;28;20393;-47
2023/06/18 00:48:26;;;;;;;10.18;9.23;;;;;;;19.19;100.00;101207.53;5014024;28;20469;-51
2023/06/18 00:50:54;;;;;;;11.10;10.10;;;;;;;18.89;100.00;101162.25;5030397;28;20034;-49
2023/06/18 00:53:20;;;;;;;10.15;9.32;;;;;;;19.27;100.00;101227.47;5013812;28;20117;-50
2023/06/18 00:55:47;;;;;;;10.82;9.75;;;;;;;19.10;100.00;101203.63;5015457;28;20117;-48
2023/06/18 00:58:13;;;;;;;10.70;9.70;;;;;;;19.21;100.00;101221.63;5015336;28;20071;-50
2023/06/18 01:00:40;;;;;;;10.40;9.40;;;;;;;18.75;100.00;101143.59;5015118;28;20056;-49
2023/06/18 01:03:09;;;;;;;10.23;9.32;;;;;;;19.14;100.00;101212.31;5014987;28;20034;-50
2023/06/18 01:05:34;;;;;;;10.43;9.43;;;;;;;19.06;100.00;101205.63;5015010;28;20052;-52
2023/06/18 01:08:00;;;;;;;10.48;9.40;;;;;;;18.67;100.00;101138.72;5030394;28;20037;-50
2023/06/18 01:10:29;;;;;;;12.50;9.60;;;;;;;19.09;100.00;101216.09;5014032;28;20049;-50
2023/06/18 01:12:58;;;;;;;10.70;9.65;;;;;;;19.06;100.00;101216.28;5029932;28;20429;-49
2023/06/18 01:15:26;;;;;;;10.57;9.57;;;;;;;18.73;100.00;101172.16;5029746;28;20069;-46
2023/06/18 01:17:56;;;;;;;10.18;9.25;;;;;;;18.85;100.00;101198.97;5013668;28;20030;-47
2023/06/18 01:20:25;;;;;;;11.15;9.10;;;;;;;18.43;100.00;101130.38;5029460;28;20363;-47
2023/06/18 01:23:02;;;;;;;9.90;8.90;;;;;;;18.83;100.00;101214.16;5029847;28;20034;-49
2023/06/18 01:25:32;;;;;;;11.93;9.80;;;;;;;18.77;100.00;101206.53;5014538;28;20041;-49
2023/06/18 01:27:58;;;;;;;10.23;9.07;;;;;;;18.68;100.00;101196.44;5014252;28;20026;-48
2023/06/18 01:30:24;;;;;;;10.48;9.45;;;;;;;18.60;100.00;101184.50;5020652;28;20477;-47
2023/06/18 01:32:49;;;;;;;10.63;9.48;;;;;;;18.24;100.00;101131.56;5016626;28;20029;-46
2023/06/18 01:35:16;;;;;;;12.32;9.43;;;;;;;18.22;100.00;101142.31;5016381;28;20439;-47
2023/06/18 01:38:03;;;;;;;9.70;8.77;;;;;;;18.60;100.00;101197.84;5034271;28;20033;-48
2023/06/18 01:40:37;;;;;;;12.00;9.68;;;;;;;18.57;100.00;101190.03;5032807;28;20041;-46
2023/06/18 01:43:18;;;;;;;10.52;9.52;;;;;;;18.55;100.00;101200.78;5034173;28;20025;-47
2023/06/18 01:45:50;;;;;;;11.07;10.05;;;;;;;18.06;100.00;101116.69;5034088;28;20056;-47
2023/06/18 01:48:20;;;;;;;10.48;9.60;;;;;;;18.15;100.00;101127.66;5016428;28;20433;-46
2023/06/18 01:50:47;;;;;;;10.47;9.20;;;;;;;18.50;100.00;101197.56;5033913;28;20033;-48
2023/06/18 01:53:15;;;;;;;10.93;9.93;;;;;;;18.32;100.00;101163.94;5032380;28;20523;-47
2023/06/18 01:55:44;;;;;;;10.50;9.38;;;;;;;18.45;100.00;101189.78;5033973;28;20033;-46
2023/06/18 01:58:10;;;;;;;10.82;9.73;;;;;;;17.97;100.00;101118.06;5016519;28;20037;-44
2023/06/18 02:00:36;;;;;;;11.50;10.30;;;;;;;17.95;100.00;101109.28;5033780;28;20030;-46
2023/06/18 02:03:01;;;;;;;10.63;9.68;;;;;;;18.21;100.00;101169.94;5033545;28;20596;-49
2023/06/18 02:05:26;;;;;;;10.25;8.85;;;;;;;18.15;100.00;101148.09;5015816;28;20033;-49
2023/06/18 02:07:52;;;;;;;10.10;9.20;;;;;;;18.18;100.00;101161.25;5016210;28;20052;-49
2023/06/18 02:10:17;;;;;;;9.63;8.82;;;;;;;18.28;100.00;101181.06;5015829;28;20033;-48
2023/06/18 02:12:42;;;;;;;10.23;9.23;;;;;;;17.84;100.00;101109.06;5015289;28;20067;-48
2023/06/18 02:15:08;;;;;;;9.75;8.85;;;;;;;18.20;100.00;101176.19;4998740;28;20388;-47
2023/06/18 02:17:33;;;;;;;10.52;9.43;;;;;;;17.78;100.00;101098.78;5015746;28;20029;-48
2023/06/18 02:19:59;;;;;;;9.85;8.75;;;;;;;18.19;100.00;101176.25;5033229;28;20388;-48
2023/06/18 02:22:24;;;;;;;8.75;7.93;;;;;;;18.16;100.00;101176.44;5033300;28;20393;-51
2023/06/18 02:24:50;;;;;;;9.43;8.55;;;;;;;17.66;100.00;101116.31;5033321;28;20120;-47
2023/06/18 02:27:15;;;;;;;9.65;8.75;;;;;;;17.70;100.00;101095.69;5033049;28;20077;-46
2023/06/18 02:29:45;;;;;;;9.25;8.45;;;;;;;18.10;100.00;101172.34;5032945;28;20120;-46
2023/06/18 02:32:11;;;;;;;12.25;9.43;;;;;;;18.06;100.00;101170.81;5033125;28;20040;-49
2023/06/18 02:34:36;;;;;;;9.95;8.80;;;;;;;18.05;100.00;101166.41;5032918;28;20124;-45
2023/06/18 02:37:01;;;;;;;9.55;8.50;;;;;;;18.05;100.00;101165.56;5014995;28;20040;-48
2023/06/18 02:39:27;;;;;;;10.20;8.57;;;;;;;18.05;100.00;101173.56;5015161;28;20037;-48
2023/06/18 02:41:52;;;;;;;10.63;9.15;;;;;;;17.84;100.00;101141.88;5033183;28;20037;-46
2023/06/18 02:44:18;;;;;;;8.95;8.15;;;;;;;17.68;100.00;101113.56;5032959;28;20033;-46
2023/06/18 02:46:43;;;;;;;11.23;8.45;;;;;;;17.44;100.00;101082.06;5032616;28;20036;-48
2023/06/18 02:49:08;;;;;;;9.63;8.65;;;;;;;17.86;100.00;101150.63;5032523;28;20029;-48
2023/06/18 02:51:34;;;;;;;11.10;8.90;;;;;;;17.92;100.00;101168.09;5032730;28;20037;-46
2023/06/18 02:53:59;;;;;;;10.48;9.38;;;;;;;17.86;100.00;101155.13;5032380;28;20428;-47
2023/06/18 02:56:26;;;;;;;10.35;8.75;;;;;;;17.90;100.00;101175.28;5014770;28;20073;-47
2023/06/18 02:58:56;;;;;;;12.00;8.30;;;;;;;17.80;100.00;101159.00;5032666;28;20477;-47
2023/06/18 03:01:24;;;;;;;9.20;8.30;;;;;;;17.80;100.00;101160.81;5015513;28;20511;-50
2023/06/18 03:03:50;;;;;;;10.43;8.75;;;;;;;17.73;100.00;101151.44;5032394;28;20109;-50
2023/06/18 03:06:16;;;;;;;10.18;8.63;;;;;;;17.69;100.00;101150.75;5014842;28;20034;-48
2023/06/18 03:08:41;;;;;;;9.60;8.68;;;;;;;17.75;100.00;101160.19;5015090;28;20033;-48
2023/06/18 03:11:07;;;;;;;9.98;8.98;;;;;;;17.69;100.00;101160.53;5030646;28;20041;-49
2023/06/18 03:13:32;;;;;;;10.65;9.63;;;;;;;17.69;100.00;101166.72;5032494;28;20080;-51
2023/06/18 03:15:57;;;;;;;9.85;8.85;;;;;;;17.27;100.00;101106.09;5032134;28;20499;-47
2023/06/18 03:18:23;;;;;;;10.88;9.27;;;;;;;17.20;100.00;101090.53;5013898;28;20068;-47
2023/06/18 03:20:48;;;;;;;11.27;9.35;;;;;;;17.19;100.00;101102.97;5031836;28;20041;-49
2023/06/18 03:23:14;;;;;;;14.05;9.52;;;;;;;17.15;100.00;101092.59;5032027;28;20037;-45
2023/06/18 03:25:39;;;;;;;10.60;9.60;;;;;;;17.61;100.00;101170.75;5032047;28;20065;-47
2023/06/18 03:28:05;;;;;;;11.07;9.50;;;;;;;17.18;100.00;101098.63;5031766;28;20086;-47
2023/06/18 03:30:30;;;;;;;11.02;9.68;;;;;;;17.57;100.00;101180.72;5014607;28;20060;-50
2023/06/18 03:32:58;;;;;;;10.73;9.48;;;;;;;17.55;100.00;101168.44;5032081;28;20081;-46
2023/06/18 03:35:24;;;;;;;11.63;10.02;;;;;;;17.34;100.00;101136.72;5032111;28;20485;-47
2023/06/18 03:37:49;;;;;;;10.70;9.63;;;;;;;17.28;100.00;101128.22;5032258;28;20049;-46
2023/06/18 03:40:15;;;;;;;11.43;10.25;;;;;;;17.05;100.00;101086.06;5031984;28;20052;-50
2023/06/18 03:42:41;;;;;;;11.10;8.93;;;;;;;17.09;100.00;101092.94;5031986;28;20042;-48
2023/06/18 03:45:06;;;;;;;11.68;9.80;;;;;;;17.11;100.00;101088.41;5031679;28;20038;-47
2023/06/18 03:47:32;;;;;;;10.70;9.70;;;;;;;17.31;100.00;101114.75;5032041;28;20092;-47
2023/06/18 03:49:57;;;;;;;10.43;9.43;;;;;;;17.58;100.00;101173.59;5032171;28;20309;-47
2023/06/18 03:52:22;;;;;;;12.40;9.88;;;;;;;17.21;100.00;101101.13;5032494;28;20037;-48
2023/06/18 03:54:48;;;;;;;11.20;9.95;;;;;;;17.59;100.00;101165.53;5031879;28;20069;-46
2023/06/18 03:57:13;;;;;;;11.60;10.25;;;;;;;17.63;100.00;101172.38;5032061;28;20061;-48
2023/06/18 03:59:38;;;;;;;14.82;10.25;;;;;;;17.64;100.00;101162.59;5030133;28;20044;-47
2023/06/18 04:02:04;;;;;;;11.50;10.18;;;;;;;17.35;100.00;101105.66;5031663;28;20033;-45
2023/06/18 04:04:30;;;;;;;12.38;10.95;;;;;;;17.64;100.00;101155.47;5031809;28;20063;-48
2023/06/18 04:06:56;;;;;;;11.65;10.45;;;;;;;17.23;100.00;101083.25;5030567;28;20041;-49
2023/06/18 04:09:21;;;;;;;12.63;9.85;;;;;;;17.25;100.00;101085.84;5031517;28;20064;-50
2023/06/18 04:11:47;;;;;;;12.07;9.80;;;;;;;17.75;100.00;101154.84;5031736;28;20052;-47
2023/06/18 04:14:13;;;;;;;13.52;10.25;;;;;;;17.63;100.00;101120.97;5031670;28;20040;-49
2023/06/18 04:16:38;;;;;;;13.02;10.93;;;;;;;17.57;100.00;101100.84;5031847;28;20033;-49
2023/06/18 04:19:03;;;;;;;12.10;10.85;;;;;;;17.57;100.00;101094.69;5032080;28;20465;-46
2023/06/18 04:21:29;;;;;;;15.95;11.32;;;;;;;18.03;100.00;101164.81;5030749;28;20033;-48
2023/06/18 04:23:54;;;;;;;15.75;11.00;;;;;;;17.85;100.00;101124.97;5031879;28;20033;-48
2023/06/18 04:26:21;;;;;;;12.65;10.65;;;;;;;18.08;100.00;101147.59;5014008;28;20404;-49
2023/06/18 04:28:46;;;;;;;12.25;10.50;;;;;;;18.07;100.00;101131.72;5030449;28;20112;-48
2023/06/18 04:31:11;;;;;;;14.30;10.60;;;;;;;17.87;100.00;101085.78;5031509;28;20525;-49
2023/06/18 04:33:37;;;;;;;14.85;11.90;;;;;;;18.35;100.00;101159.31;5013918;28;20033;-49
2023/06/18 04:36:02;;;;;;;13.63;11.15;;;;;;;17.99;100.00;101095.72;5031486;28;20076;-49
2023/06/18 04:38:28;;;;;;;12.80;10.90;;;;;;;18.42;100.00;101168.63;5033917;28;20033;-48
2023/06/18 04:40:53;;;;;;;13.93;11.40;;;;;;;18.45;100.00;101163.13;5017640;28;20069;-49
2023/06/18 04:43:18;;;;;;;13.90;11.38;;;;;;;18.39;100.00;101152.81;5035154;28;20029;-48
2023/06/18 04:45:45;;;;;;;12.30;11.15;;;;;;;18.44;100.00;101155.22;5035240;28;20029;-49
2023/06/18 04:48:11;;;;;;;11.95;10.73;;;;;;;18.59;100.00;101172.16;5035039;28;20041;-47
2023/06/18 04:50:38;;;;;;;11.48;10.35;;;;;;;18.23;100.00;101100.53;5017495;28;20477;-47
2023/06/18 04:53:03;;;;;;;15.05;11.50;;;;;;;18.60;100.00;101150.72;5035093;28;20032;-49
2023/06/18 04:55:28;;;;;;;13.43;11.27;;;;;;;18.47;100.00;101099.06;5034796;28;20030;-47
2023/06/18 04:57:54;;;;;;;12.27;10.65;;;;;;;19.04;100.00;101175.53;5034768;28;20033;-49
2023/06/18 05:00:20;;;;;;;12.35;11.23;;;;;;;19.20;100.00;101186.09;5034073;28;20064;-48
2023/06/18 05:02:46;;;;;;;12.30;11.02;;;;;;;19.05;100.00;101137.22;5000398;28;20061;-48
2023/06/18 05:05:11;;;;;;;12.63;10.70;;;;;;;19.03;100.00;101107.09;5034012;28;20175;-46
2023/06/18 05:07:37;;;;;;;13.90;11.00;;;;;;;19.26;100.00;101118.13;5034739;28;20075;-47
2023/06/18 05:10:03;;;;;;;13.45;11.43;;;;;;;19.82;100.00;101191.94;5034748;28;20083;-45
2023/06/18 05:12:28;;;;;;;14.25;12.02;;;;;;;19.91;100.00;101188.66;5034583;28;20369;-49
2023/06/18 05:14:53;;;;;;;12.57;11.23;;;;;;;20.05;100.00;101196.66;5014926;28;20044;-47
2023/06/18 05:17:19;;;;;;;15.52;12.57;;;;;;;20.14;100.00;101188.00;5033799;28;20041;-48
2023/06/18 05:19:44;;;;;;;13.55;11.63;;;;;;;20.23;100.00;101207.94;5032776;28;20416;-49
2023/06/18 05:22:09;;;;;;;12.52;11.23;;;;;;;20.34;100.00;101190.25;5021269;28;20124;-46
2023/06/18 05:24:35;;;;;;;13.90;11.77;;;;;;;20.04;100.00;101122.78;5016821;28;20065;-47
2023/06/18 05:27:00;;;;;;;13.68;11.95;;;;;;;20.49;100.00;101169.63;5034061;28;20077;-47
2023/06/18 05:29:27;;;;;;;13.25;11.32;;;;;;;20.16;100.00;101096.09;5033855;28;20493;-47
2023/06/18 05:31:52;;;;;;;16.33;12.60;;;;;;;20.41;100.00;101129.19;5013277;28;20107;-48
2023/06/18 05:34:17;;;;;;;15.05;11.10;;;;;;;20.92;100.00;101192.47;5031812;28;20238;-46
2023/06/18 05:36:43;;;;;;;16.17;11.30;;;;;;;20.69;100.00;101142.38;5033728;28;20436;-47
2023/06/18 05:39:08;;;;;;;12.95;10.77;;;;;;;21.04;100.00;101185.41;5015681;28;20076;-46
2023/06/18 05:41:34;;;;;;;14.32;11.38;;;;;;;21.07;100.00;101195.88;5015676;28;20033;-47
2023/06/18 05:43:59;;;;;;;15.30;11.45;;;;;;;21.21;100.00;101201.16;5031919;28;20036;-45
2023/06/18 05:46:25;;;;;;;16.05;11.82;;;;;;;21.23;100.00;101199.22;5033764;28;20040;-46
2023/06/18 05:48:50;;;;;;;14.35;12.43;;;;;;;21.25;100.00;101206.16;5033673;28;20373;-48
2023/06/18 05:51:15;;;;;;;15.55;12.07;;;;;;;21.20;100.00;101218.16;5033457;28;20029;-49
2023/06/18 05:53:41;;;;;;;12.35;11.18;;;;;;;20.91;100.00;101176.50;5015625;28;20102;-49
2023/06/18 05:56:06;;;;;;;13.82;12.52;;;;;;;21.02;100.00;101235.47;5033624;28;20034;-46
2023/06/18 05:58:31;;;;;;;12.95;11.55;;;;;;;20.94;100.00;101260.09;5033958;28;20029;-48
2023/06/18 06:00:57;;;;;;;13.63;12.13;;;;;;;20.59;100.00;101200.13;4999278;28;20037;-47
2023/06/18 06:03:22;;;;;;;13.82;12.43;;;;;;;20.49;100.00;101154.44;5014508;28;20041;-47
2023/06/18 06:05:47;;;;;;;15.30;12.80;;;;;;;20.44;100.00;101155.69;5032009;28;20381;-48
2023/06/18 06:08:13;;;;;;;15.57;12.95;;;;;;;20.58;100.00;101209.09;5015017;28;20380;-45
2023/06/18 06:10:38;;;;;;;13.90;12.45;;;;;;;20.38;100.00;101170.34;5033262;28;20037;-46
2023/06/18 06:13:03;;;;;;;15.27;12.45;;;;;;;20.79;100.00;101215.66;5033311;28;20048;-49
2023/06/18 06:15:29;;;;;;;14.23;12.85;;;;;;;20.73;100.00;101224.09;5033152;28;20040;-49
2023/06/18 06:17:55;;;;;;;13.55;12.25;;;;;;;20.73;100.00;101222.31;5033463;28;20033;-46
2023/06/18 06:20:20;;;;;;;16.83;12.68;;;;;;;20.55;100.00;101171.88;5032196;28;20044;-49
2023/06/18 06:22:46;;;;;;;13.18;11.82;;;;;;;20.96;100.00;101223.38;5033269;28;20029;-48
2023/06/18 06:25:11;;;;;;;12.60;11.27;;;;;;;21.07;100.00;101217.31;5015707;28;20041;-49
2023/06/18 06:27:37;;;;;;;15.27;11.57;;;;;;;21.25;100.00;101227.59;5033089;28;20538;-47
2023/06/18 06:30:04;;;;;;;11.95;10.77;;;;;;;21.41;100.00;101237.22;5032793;28;20061;-47
2023/06/18 06:32:30;;;;;;;12.98;10.60;;;;;;;21.45;100.00;101212.81;5033098;28;20084;-46
2023/06/18 06:34:55;;;;;;;12.05;10.85;;;;;;;21.71;100.00;101243.06;5015269;28;20061;-48
2023/06/18 06:37:20;;;;;;;11.70;10.50;;;;;;;21.83;100.00;101244.88;5033100;28;20045;-48
2023/06/18 06:39:46;;;;;;;12.93;10.45;;;;;;;21.96;100.00;101251.06;5032943;28;20048;-51
2023/06/18 06:42:13;;;;;;;12.63;10.65;;;;;;;22.10;100.00;101264.31;5032899;28;20044;-48
2023/06/18 06:44:38;;;;;;;13.05;10.90;;;;;;;22.17;100.00;101280.81;5032791;28;20060;-46
2023/06/18 06:47:04;;;;;;;11.30;9.55;;;;;;;22.15;100.00;101277.38;5033110;28;20025;-51
2023/06/18 06:49:29;;;;;;;10.98;9.80;;;;;;;22.14;100.00;101275.66;5015687;28;20041;-46
2023/06/18 06:51:55;;;;;;;11.70;10.50;;;;;;;21.80;100.00;101221.81;5032760;28;20029;-50
2023/06/18 06:54:21;;;;;;;11.07;8.98;;;;;;;21.75;100.00;101213.25;5031208;28;20124;-49
2023/06/18 06:56:46;;;;;;;10.07;8.90;;;;;;;22.08;100.00;101266.25;5015285;28;20109;-49
2023/06/18 06:59:12;;;;;;;9.52;8.63;;;;;;;22.03;100.00;101228.22;5032663;28;20060;-48
2023/06/18 07:01:39;;;;;;;10.18;9.20;;;;;;;22.09;100.00;101217.03;4998169;28;20038;-50
2023/06/18 07:04:04;;;;;;;11.77;9.60;;;;;;;22.19;100.00;101193.06;5032762;28;20049;-51
2023/06/18 07:06:29;;;;;;;10.43;9.05;;;;;;;22.85;100.00;101259.56;5032598;28;20037;-46
2023/06/18 07:08:57;;;;;;;10.57;9.52;;;;;;;22.97;100.00;101254.09;5032506;28;20420;-46
2023/06/18 07:11:23;;;;;;;9.73;8.70;;;;;;;23.30;100.00;101284.66;5032321;28;20041;-47
2023/06/18 07:13:48;;;;;;;11.73;9.32;;;;;;;23.28;100.00;101270.50;5032310;28;20033;-48
2023/06/18 07:16:13;;;;;;;14.27;8.75;;;;;;;22.84;100.00;101212.22;5032497;28;20030;-48
2023/06/18 07:18:39;;;;;;;11.10;10.00;;;;;;;23.22;100.00;101271.84;5032116;28;20037;-49
2023/06/18 07:21:04;;;;;;;9.60;8.60;;;;;;;23.21;100.00;101288.91;5032350;28;20559;-52
2023/06/18 07:23:29;;;;;;;10.60;9.10;;;;;;;23.14;100.00;101278.78;5032233;28;20393;-49
2023/06/18 07:25:55;;;;;;;11.32;10.13;;;;;;;23.28;100.00;101308.09;5032181;28;20955;-49
2023/06/18 07:28:20;;;;;;;9.98;8.95;;;;;;;23.35;100.00;101296.75;5032155;28;20037;-48
2023/06/18 07:30:45;;;;;;;9.70;8.70;;;;;;;23.45;100.00;101294.22;5032020;28;20049;-46
2023/06/18 07:33:11;;;;;;;12.20;8.73;;;;;;;23.18;100.00;101231.91;5032231;28;20030;-51
2023/06/18 07:35:36;;;;;;;10.95;8.43;;;;;;;23.61;100.00;101292.06;5032668;28;20598;-49
2023/06/18 07:38:01;;;;;;;9.25;8.35;;;;;;;23.74;100.00;101295.47;5014618;28;20030;-48
2023/06/18 07:40:28;;;;;;;9.10;8.20;;;;;;;23.71;100.00;101284.09;5031691;28;20044;-46
2023/06/18 07:42:53;;;;;;;11.07;8.50;;;;;;;23.82;100.00;101279.56;5032077;28;20485;-48
2023/06/18 07:45:19;;;;;;;8.40;7.60;;;;;;;23.73;100.00;101271.41;5032110;28;20040;-49
2023/06/18 07:47:44;;;;;;;8.85;7.95;;;;;;;23.51;100.00;101231.94;5032000;28;20488;-48
2023/06/18 07:50:09;;;;;;;9.07;8.27;;;;;;;23.91;100.00;101294.09;5032103;28;20044;-48
2023/06/18 07:52:35;;;;;;;9.48;7.90;;;;;;;23.90;100.00;101300.47;5032162;28;20477;-50
2023/06/18 07:55:00;;;;;;;8.48;7.57;;;;;;;23.83;100.00;101291.19;5031474;28;20040;-50
2023/06/18 07:57:25;;;;;;;8.30;7.50;;;;;;;23.65;100.00;101280.06;5032282;28;20064;-52
2023/06/18 07:59:51;;;;;;;9.65;8.65;;;;;;;23.68;100.00;101298.63;5031922;28;20052;-48
2023/06/18 08:02:16;;;;;;;13.90;8.27;;;;;;;23.55;100.00;101297.06;5032188;28;20400;-47
2023/06/18 08:04:41;;;;;;;10.38;8.90;;;;;;;23.48;100.00;101291.31;5014152;28;20048;-52
2023/06/18 08:07:07;;;;;;;8.52;7.72;;;;;;;23.46;100.00;101301.31;5014040;28;20041;-48
2023/06/18 08:09:33;;;;;;;9.77;8.50;;;;;;;23.44;100.00;101292.50;5031534;28;20130;-47
2023/06/18 08:11:59;;;;;;;11.23;9.77;;;;;;;23.22;100.00;101268.28;5031804;28;20096;-50
2023/06/18 08:14:24;;;;;;;10.60;9.60;;;;;;;23.47;100.00;101295.81;5035145;28;20030;-50
2023/06/18 08:16:50;;;;;;;9.50;8.52;;;;;;;23.05;100.00;101218.59;5035643;28;20036;-46
2023/06/18 08:19:15;;;;;;;8.40;7.60;;;;;;;23.20;100.00;101224.59;5035488;28;20546;-48
2023/06/18 08:21:40;;;;;;;9.13;8.23;;;;;;;23.72;100.00;101286.69;5035264;28;20033;-47
2023/06/18 08:24:06;;;;;;;9.38;8.55;;;;;;;23.78;100.00;101286.19;5035739;28;20071;-50
2023/06/18 08:26:31;;;;;;;11.50;8.52;;;;;;;23.48;100.00;101213.38;5035539;28;20136;-47
2023/06/18 08:28:57;;;;;;;10.35;9.07;;;;;;;23.70;100.00;101225.97;5035484;28;20246;-47
2023/06/18 08:31:22;;;;;;;9.82;8.82;;;;;;;24.15;100.00;101285.91;5035490;28;20099;-50
2023/06/18 08:33:49;;;;;;;11.43;9.82;;;;;;;24.18;100.00;101288.34;5035218;28;20108;-47
2023/06/18 08:36:14;;;;;;;10.75;9.65;;;;;;;24.29;100.00;101270.34;5035044;28;20465;-49
2023/06/18 08:38:40;;;;;;;10.48;9.35;;;;;;;24.44;100.00;101279.84;5035291;28;20034;-50
2023/06/18 08:41:22;;;;;;;10.20;9.10;;;;;;;24.61;100.00;101278.41;5035538;28;20065;-49
2023/06/18 08:43:47;;;;;;;12.93;8.82;;;;;;;24.71;100.00;101276.66;5033904;28;20037;-48
2023/06/18 08:46:15;;;;;;;11.38;9.77;;;;;;;24.15;100.00;101163.03;5033838;28;20026;-49
2023/06/18 08:48:54;;;;;;;11.18;9.55;;;;;;;24.74;100.00;101236.03;5034918;28;20072;-48
2023/06/18 08:51:20;;;;;;;11.65;9.35;;;;;;;24.92;100.00;101237.19;5017285;28;20390;-49
2023/06/18 08:53:57;;;;;;;9.73;8.82;;;;;;;24.85;100.00;101198.28;5017158;28;20116;-50
2023/06/18 08:56:23;;;;;;;10.43;9.43;;;;;;;25.07;100.00;101206.22;5033754;28;20079;-47
2023/06/18 08:58:50;;;;;;;11.25;8.85;;;;;;;25.63;100.00;101259.69;5034862;28;20120;-46
2023/06/18 09:01:17;;;;;;;10.45;9.45;;;;;;;25.89;100.00;101270.88;5033412;28;20538;-47
2023/06/18 09:03:43;;;;;;;10.18;9.18;;;;;;;25.43;100.00;101199.44;5034783;28;20056;-47
2023/06/18 09:06:08;;;;;;;10.88;9.70;;;;;;;25.46;100.00;101219.88;5034582;28;20068;-47
2023/06/18 09:08:34;;;;;;;10.68;9.23;;;;;;;25.71;100.00;101257.19;5033157;28;20065;-47
2023/06/18 09:11:00;;;;;;;10.07;8.48;;;;;;;25.69;100.00;101264.53;5034561;28;20037;-48
2023/06/18 09:13:25;;;;;;;9.70;8.77;;;;;;;25.42;100.00;101213.91;5033990;28;20037;-48
2023/06/18 09:15:50;;;;;;;9.75;8.82;;;;;;;25.61;100.00;101254.44;5016962;28;20079;-47
2023/06/18 09:18:16;;;;;;;10.52;9.20;;;;;;;25.47;100.00;101262.88;5033363;28;20042;-48
2023/06/18 09:20:42;;;;;;;10.52;9.63;;;;;;;25.46;100.00;101280.03;5034108;28;20125;-47
2023/06/18 09:23:11;;;;;;;9.85;8.50;;;;;;;25.44;100.00;101248.81;5015605;28;20132;-47
2023/06/18 09:25:36;;;;;;;9.88;8.88;;;;;;;25.31;100.00;101213.97;5031629;28;20037;-51
2023/06/18 09:28:03;;;;;;;9.05;8.15;;;;;;;25.72;100.00;101266.97;5033485;28;20105;-47
2023/06/18 09:30:29;;;;;;;10.63;9.38;;;;;;;25.50;100.00;101202.47;5034274;28;20056;-52
2023/06/18 09:32:57;;;;;;;11.85;9.77;;;;;;;26.11;100.00;101263.41;5032868;28;20120;-48
2023/06/18 09:35:23;;;;;;;12.43;9.95;;;;;;;26.05;100.00;101238.81;5033786;28;20542;-48
2023/06/18 09:37:48;;;;;;;11.35;9.90;;;;;;;26.07;100.00;101234.97;5032630;28;20037;-48
2023/06/18 09:40:16;;;;;;;10.00;8.48;;;;;;;25.95;100.00;101205.59;5016390;28;20033;-49
2023/06/18 09:42:42;;;;;;;11.57;9.30;;;;;;;26.32;100.00;101249.81;5032997;28;20095;-50
2023/06/18 09:45:08;;;;;;;11.07;9.85;;;;;;;26.48;100.00;101260.91;5034154;28;20033;-48
2023/06/18 09:47:33;;;;;;;10.93;9.88;;;;;;;26.06;100.00;101195.53;5016416;28;20025;-48
2023/06/18 09:49:58;;;;;;;12.02;10.05;;;;;;;26.16;100.00;101217.97;5033841;28;20396;-47
2023/06/18 09:52:24;;;;;;;10.60;9.50;;;;;;;26.18;100.00;101213.28;4999932;28;20380;-52
2023/06/18 09:54:50;;;;;;;10.77;9.02;;;;;;;26.44;100.00;101251.41;5016249;28;20040;-49
2023/06/18 09:57:16;;;;;;;10.60;8.98;;;;;;;26.37;100.00;101260.19;5033964;28;20456;-51
2023/06/18 09:59:41;;;;;;;10.35;9.45;;;;;;;25.90;100.00;101199.72;5033294;28;20026;-50
2023/06/18 10:02:09;;;;;;;12.40;8.88;;;;;;;25.71;100.00;101189.78;5033208;28;20221;-51
2023/06/18 10:04:34;;;;;;;9.27;8.48;;;;;;;25.88;100.00;101250.28;5033596;28;20227;-49
2023/06/18 10:07:03;;;;;;;12.55;9.27;;;;;;;25.59;100.00;101250.19;5033339;28;20108;-46
2023/06/18 10:09:38;;;;;;;9.20;8.45;;;;;;;25.38;100.00;101227.78;5033441;28;20493;-49
2023/06/18 10:12:05;;;;;;;9.95;9.07;;;;;;;25.00;100.00;101191.59;5033303;28;20032;-51
2023/06/18 10:14:31;;;;;;;12.20;11.00;;;;;;;25.30;100.00;101244.63;5031702;28;20084;-49
2023/06/18 10:17:27;;;;;;;11.70;10.38;;;;;;;25.17;100.00;101244.84;5032741;28;20033;-50
2023/06/18 10:20:01;;;;;;;11.15;10.15;;;;;;;24.98;100.00;101225.88;5015858;28;20032;-49
2023/06/18 10:22:29;;;;;;;10.70;9.77;;;;;;;24.72;100.00;101180.63;5015160;28;20033;-48
2023/06/18 10:25:07;;;;;;;10.63;9.68;;;;;;;24.97;100.00;101226.00;5031373;28;20171;-47
2023/06/18 10:27:34;;;;;;;11.20;10.20;;;;;;;24.91;100.00;101246.25;5033185;28;20431;-51
2023/06/18 10:30:00;;;;;;;10.75;9.68;;;;;;;24.87;100.00;101239.41;5033024;28;20380;-46
2023/06/18 10:32:26;;;;;;;11.55;9.63;;;;;;;24.67;100.00;101224.06;5033069;28;20036;-49
2023/06/18 10:34:53;;;;;;;10.20;9.20;;;;;;;24.56;100.00;101194.53;5032916;28;20041;-50
2023/06/18 10:37:20;;;;;;;11.07;9.95;;;;;;;24.69;100.00;101215.88;5031371;28;20041;-48
2023/06/18 10:39:46;;;;;;;10.02;9.13;;;;;;;24.69;100.00;101234.72;5032733;28;20026;-46
2023/06/18 10:42:13;;;;;;;10.35;8.70;;;;;;;24.79;100.00;101222.16;5015005;28;20100;-47
2023/06/18 10:44:47;;;;;;;8.43;7.05;;;;;;;24.92;100.00;101226.41;5031651;28;20095;-47
2023/06/18 10:47:20;;;;;;;9.20;7.07;;;;;;;24.64;100.00;101162.41;5032690;28;20037;-45
2023/06/18 10:50:01;;;;;;;8.25;7.30;;;;;;;25.07;100.00;101224.22;5015233;28;20055;-47
2023/06/18 10:52:27;;;;;;;7.53;6.88;;;;;;;25.12;100.00;101197.75;5032677;28;20021;-50
2023/06/18 10:55:08;;;;;;;8.45;6.78;;;;;;;25.22;100.00;101181.63;5032688;28;20044;-46
2023/06/18 10:57:37;;;;;;;7.70;6.60;;;;;;;25.66;100.00;101213.56;5032317;28;20575;-49
2023/06/18 11:00:31;;;;;;;7.03;6.43;;;;;;;26.06;100.00;101232.44;5032624;28;20084;-47
2023/06/18 11:03:18;;;;;;;6.55;6.05;;;;;;;26.27;100.00;101219.69;5032351;28;20026;-48
2023/06/18 11:05:46;;;;;;;6.68;5.47;;;;;;;26.58;100.00;101228.50;5031684;28;20524;-48
2023/06/18 11:08:13;;;;;;;5.90;5.43;;;;;;;26.38;100.00;101175.53;5031972;28;20465;-48